Flight Track Log - Related Links

Times and Time Zones

All times are in EDT time to prevent confusion due to time zone crossing. See the EJA922P flight status page for this flight to view local times or setup timezone preferences in your user account.


Time Position Orientation Groundspeed Altitude Reporting Facility
EDT Latitude Longitude Course Direction KTS MPH feet Rate Location/Type
Sun 04:06:29 PM 17.4000 -62.7333 285° West 260 299 8,300  Level San Juan Center
Sun 04:07:00 PM 17.4349 -62.7645 341° North  Level Estimated
Sun 04:07:28 PM 17.3667 -62.8333 251° West 320 368 11,200  Level San Juan Center
Sun 04:08:00 PM 17.4063 -62.8987 257° West  Level FlightAware Approximate
Sun 04:08:28 PM 17.3500 -62.9333 260° West 360 414 12,600  Level San Juan Center
Sun 04:09:00 PM 17.3583 -62.9667 242° Southwest  Level FlightAware Approximate
Sun 04:09:29 PM 17.3500 -63.0333 270° West 390 449 14,100  Level San Juan Center
Sun 04:10:00 PM 17.3640 -63.1008 280° West  Level FlightAware Approximate
Sun 04:10:29 PM 17.3833 -63.1500 287° West 420 483 14,100  Level San Juan Center
Sun 04:11:00 PM 17.4037 -63.2316 285° West  Level FlightAware Approximate
Sun 04:11:29 PM 17.4000 -63.2833 277° West 410 472 16,100  Level San Juan Center
Sun 04:12:29 PM 17.4333 -63.3833 289° West 400 460 17,700 1,350 Climbing San Juan Center
Sun 04:13:29 PM 17.4833 -63.4667 302° West 390 449 18,800 1,150 Climbing San Juan Center
Sun 04:14:29 PM 17.6000 -63.5000 345° North 410 472 20,000 1,240 Climbing San Juan Center
Sun 04:15:30 PM 17.7167 -63.5000 360° North 410 472 21,300 1,140 Climbing San Juan Center
Sun 04:16:30 PM 17.8333 -63.5167 352° North 410 472 22,300 900 Climbing San Juan Center
Sun 04:17:30 PM 17.9667 -63.5167 360° North 420 483 23,100 850 Climbing San Juan Center
Sun 04:18:30 PM 18.0833 -63.5333 352° North 420 483 24,000 800 Climbing San Juan Center
Sun 04:19:30 PM 18.2000 -63.5333 360° North 430 495 24,700 850 Climbing San Juan Center
Sun 04:20:30 PM 18.3167 -63.5500 352° North 440 506 25,700 950 Climbing San Juan Center
Sun 04:21:30 PM 18.4333 -63.5500 360° North 440 506 26,600 1,000 Climbing San Juan Center
Sun 04:22:30 PM 18.5667 -63.5667 353° North 440 506 27,700 1,041 Climbing San Juan Center
Sun 04:23:31 PM 18.6833 -63.5667 360° North 440 506 28,700 1,041 Climbing San Juan Center
Sun 04:24:31 PM 18.8000 -63.5833 352° North 440 506 29,800 1,000 Climbing San Juan Center
Sun 04:25:31 PM 18.9167 -63.6000 352° North 440 506 30,700 1,050 Climbing San Juan Center
Sun 04:26:31 PM 19.0500 -63.6000 360° North 450 518 31,900 1,100 Climbing San Juan Center
Sun 04:27:31 PM 19.1667 -63.6167 352° North 450 518 32,900 900 Climbing San Juan Center
Sun 04:28:31 PM 19.3000 -63.6333 353° North 450 518 33,700 900 Climbing San Juan Center
Sun 04:29:31 PM 19.4333 -63.6333 360° North 460 529 34,700 1,100 Climbing San Juan Center
Sun 04:30:31 PM 19.5667 -63.6500 353° North 470 541 35,900 1,091 Climbing San Juan Center
Sun 04:31:32 PM 19.6833 -63.6667 352° North 480 552 36,900 992 Climbing San Juan Center
Sun 04:32:32 PM 19.8167 -63.6667 360° North 470 541 37,900 1,000 Climbing San Juan Center
Sun 04:33:32 PM 19.9500 -63.6833 353° North 470 541 38,900 1,050 Climbing San Juan Center
Sun 04:34:32 PM 20.0833 -63.7000 353° North 470 541 40,000 550 Climbing San Juan Center
Sun 04:35:32 PM 20.2167 -63.7000 360° North 470 541 40,000  Level San Juan Center
Sun 04:36:32 PM 20.3500 -63.7167 353° North 480 552 40,000  Level San Juan Center
Sun 04:37:33 PM 20.4833 -63.7167 360° North 480 552 40,000  Level San Juan Center
Sun 04:38:33 PM 20.6167 -63.7333 353° North 490 564 40,000  Level San Juan Center
Sun 04:39:33 PM 20.7500 -63.7500 353° North 500 575 40,000  Level San Juan Center
Sun 04:40:33 PM 20.9000 -63.7667 354° North 500 575 40,000  Level San Juan Center
Sun 04:41:33 PM 21.0333 -63.7667 360° North 500 575 40,000  Level San Juan Center
Sun 04:42:33 PM 21.1667 -63.7833 353° North 500 575 40,000  Level San Juan Center
Sun 04:43:34 PM 21.3167 -63.8000 354° North 500 575 40,000  Level San Juan Center
Sun 04:44:34 PM 21.4500 -63.8000 360° North 490 564 40,000  Level San Juan Center
Sun 04:45:33 PM 21.5833 -63.8167 353° North 500 575 40,000  Level San Juan Center
Sun 04:46:39 PM 21.7500 -63.8333 355° North 490 564 40,000  Level San Juan Center
Sun 04:50:02 PM 21.8500 -63.8500 350° North 448 516 40,000  Level New York Oceanic (ODAPS)
Sun 05:30:20 PM 27.3167 -64.9667 349° North 512 589 40,000  Level New York Oceanic (ODAPS)
Sun 05:41:39 PM 29.2322 -65.3631 349° North 500 575 40,000  Level New York Center
Sun 05:42:00 PM 29.4167 -65.4167 349° North 512 589 40,000  Level FlightAware Transoceanic
Sun 05:42:39 PM 29.3628 -65.4006 346° North 506 582 40,000  Level New York Center
Sun 05:43:00 PM 29.5584 -65.4475 349° North 512 589 40,000  Level FlightAware Transoceanic
Sun 05:43:39 PM 29.5186 -65.4483 345° North 532 612 40,000  Level New York Center
Sun 05:44:00 PM 29.7002 -65.4785 349° North 512 589 40,000  Level FlightAware Transoceanic
Sun 05:44:39 PM 29.6464 -65.4719 351° North 511 588 40,000  Level New York Center
Sun 05:45:00 PM 29.8420 -65.5096 349° North 512 589 40,000  Level FlightAware Transoceanic
Sun 05:45:39 PM 29.7719 -65.4408 12° North 478 550 40,000  Level New York Center
Sun 05:46:00 PM 29.9837 -65.5407 349° North 512 589 40,000  Level FlightAware Transoceanic
Sun 05:46:39 PM 29.9358 -65.5719 325° Northwest 535 616 40,000  Level New York Center
Sun 05:47:39 PM 30.0522 -65.6203 340° North 505 581 40,000  Level New York Center
Sun 05:48:39 PM 30.1964 -65.6839 339° North 500 575 40,000  Level New York Center
Sun 05:49:39 PM 30.3322 -65.7506 337° Northwest 511 588 40,000  Level New York Center
Sun 05:50:39 PM 30.4489 -65.8039 338° Northwest 511 588 40,000  Level New York Center
Sun 05:51:39 PM 30.5956 -65.8775 337° Northwest 510 587 40,000  Level New York Center
Sun 05:52:39 PM 30.7144 -65.9314 339° North 504 580 40,000  Level New York Center
Sun 05:53:39 PM 30.8564 -65.9958 339° North 503 579 40,000  Level New York Center
Sun 05:54:39 PM 30.9878 -66.0567 338° Northwest 503 579 40,000  Level New York Center
Sun 05:55:39 PM 31.1044 -66.1108 338° Northwest 507 583 40,000  Level New York Center
Sun 05:56:39 PM 31.2508 -66.1806 338° Northwest 510 587 40,000  Level New York Center
Sun 05:57:39 PM 31.3781 -66.2372 339° North 498 573 40,000  Level New York Center
Sun 05:58:39 PM 31.4947 -66.2942 337° Northwest 498 573 40,000  Level New York Center
Sun 05:59:39 PM 31.6389 -66.3622 338° Northwest 511 588 40,000  Level New York Center
Sun 06:00:39 PM 31.7681 -66.4217 339° North 504 580 40,000  Level New York Center
Sun 06:01:39 PM 31.8889 -66.4792 338° Northwest 504 580 40,000  Level New York Center
Sun 06:02:39 PM 32.0286 -66.5456 338° Northwest 496 571 40,000  Level New York Center
Sun 06:03:39 PM 32.1431 -66.6011 338° Northwest 496 571 40,000  Level New York Center
Sun 06:04:39 PM 32.2850 -66.6703 338° Northwest 496 571 40,000  Level New York Center
Sun 06:05:39 PM 32.4100 -66.7306 338° Northwest 496 571 40,000  Level New York Center
Sun 06:06:39 PM 32.5267 -66.7867 338° Northwest 499 574 40,000  Level New York Center
Sun 06:07:39 PM 32.6728 -66.8561 338° Northwest 509 586 40,000  Level New York Center
Sun 06:08:39 PM 32.8019 -66.9169 338° Northwest 495 570 40,000  Level New York Center
Sun 06:09:39 PM 32.9083 -66.9911 330° Northwest 490 564 40,000  Level New York Center
Sun 06:10:39 PM 33.0286 -67.1022 322° Northwest 496 571 40,000  Level New York Center
Sun 06:11:39 PM 33.1211 -67.1972 319° Northwest 486 559 40,000  Level New York Center
Sun 06:12:39 PM 33.2411 -67.3061 323° Northwest 497 572 40,000  Level New York Center
Sun 06:13:39 PM 33.3581 -67.3908 329° Northwest 496 571 40,000  Level New York Center
Sun 06:14:39 PM 33.4686 -67.4586 333° Northwest 501 577 40,000  Level New York Center
Sun 06:15:39 PM 33.6083 -67.5353 335° Northwest 490 564 40,000  Level New York Center
Sun 06:16:39 PM 33.7475 -67.5922 341° North 511 588 40,000  Level New York Center
Sun 06:17:39 PM 33.8533 -67.6533 334° Northwest 498 573 40,000 93 Level New York Center
Sun 06:48:51 PM 37.5528 -69.8289 327° Northwest 515 593 43,000 93 Climbing New York Center
Sun 06:49:00 PM 37.3256 -70.4138 327° Northwest  Level Estimated
Sun 06:49:51 PM 37.6803 -69.8719 345° North 502 578 43,000  Level New York Center
Sun 06:50:00 PM 37.4357 -70.5048 327° Northwest  Level Estimated
Sun 06:50:52 PM 37.8183 -69.9100 348° North 502 578 43,000  Level New York Center
Sun 06:51:00 PM 37.5457 -70.5961 327° Northwest  Level Estimated
Sun 06:51:51 PM 37.9583 -69.9453 349° North 502 578 43,000  Level New York Center
Sun 06:52:00 PM 37.6557 -70.6877 327° Northwest  Level Estimated
Sun 06:52:51 PM 38.0919 -69.9889 346° North 502 578 43,000  Level New York Center
Sun 06:53:00 PM 37.7656 -70.7795 327° Northwest  Level Estimated
Sun 06:53:51 PM 38.2236 -70.0297 346° North 496 571 43,000  Level New York Center
Sun 06:54:51 PM 38.3575 -70.0789 344° North 490 564 43,000  Level New York Center
Sun 06:55:51 PM 38.4497 -70.1947 315° West 462 532 43,000  Level New York Center
Sun 06:56:51 PM 38.5483 -70.2950 322° Northwest 462 532 43,000  Level New York Center
Sun 06:57:51 PM 38.6508 -70.4006 321° Northwest 462 532 43,000  Level New York Center
Sun 06:58:51 PM 38.7553 -70.4986 324° Northwest 467 537 43,000  Level New York Center
Sun 06:59:51 PM 38.8617 -70.5969 324° Northwest 472 543 43,000 -50 Level New York Center
Sun 07:00:51 PM 38.9703 -70.6931 325° Northwest 472 543 42,900 -650 Descending New York Center
Sun 07:01:51 PM 39.0764 -70.7947 323° Northwest 472 543 41,700 -1,250 Descending New York Center
Sun 07:02:51 PM 39.1806 -70.8964 323° Northwest 472 543 40,400 -1,300 Descending New York Center
Sun 07:03:51 PM 39.2889 -70.9961 325° Northwest 477 549 39,100 -1,300 Descending New York Center
Sun 07:04:51 PM 39.3950 -71.0958 324° Northwest 483 556 37,800 -2,300 Descending New York Center
Sun 07:05:51 PM 39.5050 -71.2014 323° Northwest 483 556 34,500 -3,350 Descending New York Center
Sun 07:06:51 PM 39.6108 -71.3017 324° Northwest 483 556 31,100 -3,451 Descending New York Center
Sun 07:09:04 PM 39.8322 -71.5186 323° Northwest 450 518 23,400 -3,367 Descending Boston Center
Sun 07:10:07 PM 39.9256 -71.6089 323° Northwest 443 510 20,100 -3,000 Descending Boston Center
Sun 07:11:08 PM 40.0178 -71.6986 323° Northwest 420 483 17,200 -2,902 Descending Boston Center
Sun 07:12:09 PM 40.1064 -71.7853 323° Northwest 403 464 14,200 -2,902 Descending Boston Center
Sun 07:13:10 PM 40.1919 -71.8708 323° Northwest 390 449 11,300 -1,488 Descending Boston Center
Sun 07:14:14 PM 40.2753 -71.9528 323° Northwest 380 437 11,100 -144 Descending Boston Center
Sun 07:15:15 PM 40.3792 -72.0547 323° Northwest 387 445 11,000 -49 Descending Boston Center
Sun 07:16:16 PM 40.4653 -72.1392 323° Northwest 387 445 11,000  Level Boston Center
Sun 07:17:17 PM 40.5522 -72.2269 323° Northwest 392 451 11,000  Level Boston Center
Sun 07:18:18 PM 40.6375 -72.3117 323° Northwest 391 450 11,000  Level Boston Center
Sun 07:19:22 PM 40.7219 -72.3961 323° Northwest 387 445 11,000  Level Boston Center
Sun 07:20:22 PM 40.8072 -72.4822 323° Northwest 386 444 11,000 -446 Level Boston Center
Sun 07:21:23 PM 40.8928 -72.5697 322° Northwest 325 374 10,100 -1,122 Descending Boston Center
Sun 07:22:25 PM 40.9500 -72.6261 323° Northwest 269 310 8,700 -1,440 Descending Boston Center
Sun 07:23:28 PM 41.0056 -72.6842 322° Northwest 264 304 7,100 -1,500 Descending Boston Center
Sun 07:24:29 PM 41.0403 -72.7675 299° West 264 304 5,600 -1,033 Descending Boston Center
Sun 07:25:30 PM 41.0700 -72.8542 294° West 263 303 5,000 -694 Descending Boston Center
Sun 07:26:30 PM 41.1044 -72.9564 294° West 258 297 4,200 -484 Descending Boston Center
Sun 07:27:34 PM 41.1336 -73.0433 294° West 258 297 4,000 -97 Descending Boston Center
Sun 07:28:34 PM 41.1622 -73.1297 294° West 258 297 4,000  Level Boston Center
Sun 07:29:38 PM 41.1681 -73.2233 275° West 258 297 4,000  Level Boston Center
Sun 07:30:39 PM 41.1756 -73.3167 276° West 257 296 4,000  Level Boston Center
Sun 07:31:40 PM 41.1828 -73.4208 275° West 257 296 4,000 -545 Level Boston Center
Sun 07:32:40 PM 41.1792 -73.5022 267° West 253 291 2,900 -992 Descending Boston Center
Sun 07:33:41 PM 41.1764 -73.5900 268° West 249 287 2,000 -397 Descending Boston Center
Sun 07:34:41 PM 41.1667 -73.6833 262° West 193 222 2,100  Climbing New York TRACON
Sun 07:35:35 PM 41.1500 -73.7333 246° West 171 197 2,000 -211 Descending New York TRACON
Sun 07:36:35 PM 41.1333 -73.7500 217° Southwest 139 160 1,700 -500 Descending New York TRACON
Sun 07:37:35 PM 41.1000 -73.7333 159° South 128 147 1,000 -700 Descending New York TRACON

Login

Don't have an account? Register now (free) for customized features, flight alerts, and more!